sensor_id;sensor_type;location;lat;lon;timestamp;pressure;altitude;pressure_sealevel;temperature;humidity
46638;BME280;32365;46.938;7.390;2023-01-19T06:45:32;94441.09;;;-8.72;95.50
46638;BME280;32365;46.938;7.390;2023-01-19T06:47:59;94444.00;;;-8.76;95.85
46638;BME280;32365;46.938;7.390;2023-01-19T06:50:25;94452.06;;;-8.63;96.36
46638;BME280;32365;46.938;7.390;2023-01-19T06:52:52;94462.25;;;-8.55;96.00
46638;BME280;32365;46.938;7.390;2023-01-19T06:55:18;94457.50;;;-8.48;96.07
46638;BME280;32365;46.938;7.390;2023-01-19T06:57:44;94460.28;;;-8.51;96.20
46638;BME280;32365;46.938;7.390;2023-01-19T07:00:11;94454.84;;;-8.56;96.41
46638;BME280;32365;46.938;7.390;2023-01-19T07:02:41;94462.91;;;-8.62;96.28
46638;BME280;32365;46.938;7.390;2023-01-19T07:05:07;94463.56;;;-8.60;96.27
46638;BME280;32365;46.938;7.390;2023-01-19T07:07:34;94462.63;;;-8.59;96.46
46638;BME280;32365;46.938;7.390;2023-01-19T07:10:01;94466.59;;;-8.67;96.31
46638;BME280;32365;46.938;7.390;2023-01-19T07:12:27;94460.13;;;-8.69;96.25
46638;BME280;32365;46.938;7.390;2023-01-19T07:14:55;94469.50;;;-8.52;96.18
46638;BME280;32365;46.938;7.390;2023-01-19T07:17:21;94466.22;;;-8.52;96.37
46638;BME280;32365;46.938;7.390;2023-01-19T07:19:49;94470.66;;;-8.46;96.10
46638;BME280;32365;46.938;7.390;2023-01-19T07:22:15;94467.66;;;-8.49;96.06
46638;BME280;32365;46.938;7.390;2023-01-19T07:24:41;94464.72;;;-8.35;95.76
46638;BME280;32365;46.938;7.390;2023-01-19T07:27:08;94473.84;;;-8.34;95.48
46638;BME280;32365;46.938;7.390;2023-01-19T07:29:35;94471.06;;;-8.41;95.12
46638;BME280;32365;46.938;7.390;2023-01-19T07:32:01;94475.84;;;-8.47;95.08
46638;BME280;32365;46.938;7.390;2023-01-19T07:34:28;94482.94;;;-8.43;95.20
46638;BME280;32365;46.938;7.390;2023-01-19T07:36:56;94482.81;;;-8.31;95.43
46638;BME280;32365;46.938;7.390;2023-01-19T07:39:22;94488.63;;;-8.31;94.70
46638;BME280;32365;46.938;7.390;2023-01-19T07:41:49;94486.50;;;-8.26;93.80
46638;BME280;32365;46.938;7.390;2023-01-19T07:44:15;94484.66;;;-8.14;93.36
46638;BME280;32365;46.938;7.390;2023-01-19T07:46:42;94489.00;;;-8.16;92.79
46638;BME280;32365;46.938;7.390;2023-01-19T07:49:08;94490.34;;;-8.12;93.01
46638;BME280;32365;46.938;7.390;2023-01-19T07:51:34;94484.25;;;-8.09;93.01
46638;BME280;32365;46.938;7.390;2023-01-19T07:54:02;94497.59;;;-8.09;92.58
46638;BME280;32365;46.938;7.390;2023-01-19T07:56:28;94497.34;;;-8.25;92.53
46638;BME280;32365;46.938;7.390;2023-01-19T07:58:57;94503.81;;;-8.32;92.72
46638;BME280;32365;46.938;7.390;2023-01-19T08:01:23;94503.03;;;-8.43;92.16
46638;BME280;32365;46.938;7.390;2023-01-19T08:03:49;94504.59;;;-8.22;92.54
46638;BME280;32365;46.938;7.390;2023-01-19T08:06:18;94513.06;;;-8.04;90.48
46638;BME280;32365;46.938;7.390;2023-01-19T08:08:45;94510.56;;;-8.04;90.94
46638;BME280;32365;46.938;7.390;2023-01-19T08:11:12;94511.06;;;-7.90;89.93
46638;BME280;32365;46.938;7.390;2023-01-19T08:13:39;94517.63;;;-7.79;89.46
46638;BME280;32365;46.938;7.390;2023-01-19T08:16:05;94518.19;;;-7.85;89.92
46638;BME280;32365;46.938;7.390;2023-01-19T08:18:32;94511.19;;;-7.92;90.12
46638;BME280;32365;46.938;7.390;2023-01-19T08:20:58;94506.97;;;-7.91;90.01
46638;BME280;32365;46.938;7.390;2023-01-19T08:23:24;94506.69;;;-7.88;92.07
46638;BME280;32365;46.938;7.390;2023-01-19T08:25:52;94521.72;;;-7.68;92.09
46638;BME280;32365;46.938;7.390;2023-01-19T08:28:20;94519.03;;;-7.57;92.66
46638;BME280;32365;46.938;7.390;2023-01-19T08:30:46;94523.75;;;-7.44;92.68
46638;BME280;32365;46.938;7.390;2023-01-19T08:33:18;94529.38;;;-7.22;92.23
46638;BME280;32365;46.938;7.390;2023-01-19T08:35:46;94530.00;;;-7.11;91.94
46638;BME280;32365;46.938;7.390;2023-01-19T08:38:13;94529.72;;;-7.07;92.31
46638;BME280;32365;46.938;7.390;2023-01-19T08:40:42;94531.81;;;-6.75;89.85
46638;BME280;32365;46.938;7.390;2023-01-19T08:43:09;94529.63;;;-6.70;89.39
46638;BME280;32365;46.938;7.390;2023-01-19T08:45:38;94534.56;;;-6.50;89.59
46638;BME280;32365;46.938;7.390;2023-01-19T08:48:10;94533.19;;;-6.44;89.01
46638;BME280;32365;46.938;7.390;2023-01-19T08:50:37;94541.75;;;-6.37;87.50
46638;BME280;32365;46.938;7.390;2023-01-19T08:53:03;94545.53;;;-5.97;86.48
46638;BME280;32365;46.938;7.390;2023-01-19T08:55:32;94543.34;;;-6.00;86.19
46638;BME280;32365;46.938;7.390;2023-01-19T08:57:58;94539.34;;;-5.84;86.99
46638;BME280;32365;46.938;7.390;2023-01-19T09:00:25;94543.00;;;-5.79;87.63
46638;BME280;32365;46.938;7.390;2023-01-19T09:02:53;94544.06;;;-5.81;86.48
46638;BME280;32365;46.938;7.390;2023-01-19T09:05:20;94551.94;;;-5.58;88.08
46638;BME280;32365;46.938;7.390;2023-01-19T09:07:46;94552.59;;;-4.95;82.84
46638;BME280;32365;46.938;7.390;2023-01-19T09:10:13;94548.94;;;-4.58;79.31
46638;BME280;32365;46.938;7.390;2023-01-19T09:12:40;94546.63;;;-3.60;80.72
46638;BME280;32365;46.938;7.390;2023-01-19T09:15:07;94539.91;;;-2.80;76.72
46638;BME280;32365;46.938;7.390;2023-01-19T09:17:34;94546.19;;;-1.90;68.13
46638;BME280;32365;46.938;7.390;2023-01-19T09:20:03;94553.66;;;-1.20;67.32
46638;BME280;32365;46.938;7.390;2023-01-19T09:22:30;94549.81;;;0.31;62.27
46638;BME280;32365;46.938;7.390;2023-01-19T09:24:56;94558.50;;;1.00;59.23
46638;BME280;32365;46.938;7.390;2023-01-19T09:27:23;94548.63;;;0.90;55.45
46638;BME280;32365;46.938;7.390;2023-01-19T09:29:49;94543.84;;;0.17;60.67
46638;BME280;32365;46.938;7.390;2023-01-19T09:32:18;94545.16;;;1.40;56.73
46638;BME280;32365;46.938;7.390;2023-01-19T09:34:44;94544.56;;;2.67;53.59
46638;BME280;32365;46.938;7.390;2023-01-19T09:37:12;94545.75;;;2.24;51.92
46638;BME280;32365;46.938;7.390;2023-01-19T09:39:39;94547.47;;;2.91;51.39
46638;BME280;32365;46.938;7.390;2023-01-19T09:42:07;94554.88;;;3.19;51.53
46638;BME280;32365;46.938;7.390;2023-01-19T09:44:38;94540.91;;;3.67;49.54
46638;BME280;32365;46.938;7.390;2023-01-19T09:47:12;94545.44;;;3.72;48.13
46638;BME280;32365;46.938;7.390;2023-01-19T09:49:39;94550.88;;;4.14;46.07
46638;BME280;32365;46.938;7.390;2023-01-19T09:52:07;94541.97;;;5.30;41.98
46638;BME280;32365;46.938;7.390;2023-01-19T09:54:38;94548.34;;;5.46;40.63
46638;BME280;32365;46.938;7.390;2023-01-19T09:57:08;94551.09;;;5.45;41.26
46638;BME280;32365;46.938;7.390;2023-01-19T09:59:34;94549.38;;;7.90;36.70
46638;BME280;32365;46.938;7.390;2023-01-19T10:02:06;94547.88;;;7.65;36.29
46638;BME280;32365;46.938;7.390;2023-01-19T10:04:39;94536.84;;;6.88;37.15
46638;BME280;32365;46.938;7.390;2023-01-19T10:07:07;94545.19;;;7.31;38.68
46638;BME280;32365;46.938;7.390;2023-01-19T10:09:38;94546.44;;;7.69;38.15
46638;BME280;32365;46.938;7.390;2023-01-19T10:12:07;94539.47;;;8.61;35.89
46638;BME280;32365;46.938;7.390;2023-01-19T10:14:39;94537.59;;;7.24;38.27
46638;BME280;32365;46.938;7.390;2023-01-19T10:17:12;94535.91;;;7.99;39.46
46638;BME280;32365;46.938;7.390;2023-01-19T10:19:43;94530.03;;;10.28;33.88
46638;BME280;32365;46.938;7.390;2023-01-19T10:22:14;94527.81;;;9.87;34.11
46638;BME280;32365;46.938;7.390;2023-01-19T10:24:44;94528.59;;;5.77;40.44
46638;BME280;32365;46.938;7.390;2023-01-19T10:27:12;94515.25;;;6.65;42.46
46638;BME280;32365;46.938;7.390;2023-01-19T10:29:42;94521.66;;;11.44;30.55
46638;BME280;32365;46.938;7.390;2023-01-19T10:32:10;94514.25;;;10.29;33.32
46638;BME280;32365;46.938;7.390;2023-01-19T10:34:37;94519.50;;;11.15;30.20
46638;BME280;32365;46.938;7.390;2023-01-19T10:37:03;94518.41;;;10.36;32.23
46638;BME280;32365;46.938;7.390;2023-01-19T10:39:30;94513.03;;;9.33;34.70
46638;BME280;32365;46.938;7.390;2023-01-19T10:41:58;94520.75;;;8.20;33.07
46638;BME280;32365;46.938;7.390;2023-01-19T10:44:27;94526.44;;;7.47;36.78
46638;BME280;32365;46.938;7.390;2023-01-19T10:46:54;94520.03;;;8.93;32.44
46638;BME280;32365;46.938;7.390;2023-01-19T10:49:25;94529.59;;;8.41;33.72
46638;BME280;32365;46.938;7.390;2023-01-19T10:51:51;94517.44;;;10.74;32.63
46638;BME280;32365;46.938;7.390;2023-01-19T10:54:18;94521.66;;;10.21;31.90
46638;BME280;32365;46.938;7.390;2023-01-19T10:56:49;94510.22;;;10.11;29.87
46638;BME280;32365;46.938;7.390;2023-01-19T10:59:30;94513.16;;;10.20;31.40
46638;BME280;32365;46.938;7.390;2023-01-19T11:02:08;94505.47;;;10.63;30.17
46638;BME280;32365;46.938;7.390;2023-01-19T11:04:38;94512.03;;;10.38;31.06
46638;BME280;32365;46.938;7.390;2023-01-19T11:07:16;94498.16;;;9.95;34.07
46638;BME280;32365;46.938;7.390;2023-01-19T11:09:44;94496.84;;;9.92;34.24
46638;BME280;32365;46.938;7.390;2023-01-19T11:12:14;94491.16;;;9.40;33.89
46638;BME280;32365;46.938;7.390;2023-01-19T11:14:42;94496.28;;;10.17;34.39
46638;BME280;32365;46.938;7.390;2023-01-19T11:17:14;94492.19;;;9.39;33.85
46638;BME280;32365;46.938;7.390;2023-01-19T11:19:50;94487.34;;;9.21;36.44
46638;BME280;32365;46.938;7.390;2023-01-19T11:22:19;94483.09;;;10.94;32.60
46638;BME280;32365;46.938;7.390;2023-01-19T11:24:47;94492.75;;;9.19;32.28
46638;BME280;32365;46.938;7.390;2023-01-19T11:27:15;94482.56;;;7.42;35.75
46638;BME280;32365;46.938;7.390;2023-01-19T11:29:46;94481.63;;;7.48;36.48
46638;BME280;32365;46.938;7.390;2023-01-19T11:32:18;94486.53;;;7.21;37.53
46638;BME280;32365;46.938;7.390;2023-01-19T11:34:46;94479.91;;;8.85;32.18
46638;BME280;32365;46.938;7.390;2023-01-19T11:37:25;94484.13;;;7.72;33.44
46638;BME280;32365;46.938;7.390;2023-01-19T11:39:52;94482.16;;;7.33;34.50
46638;BME280;32365;46.938;7.390;2023-01-19T11:42:20;94481.69;;;6.96;34.57
46638;BME280;32365;46.938;7.390;2023-01-19T11:44:50;94478.31;;;7.36;34.70
46638;BME280;32365;46.938;7.390;2023-01-19T11:47:22;94482.84;;;7.17;35.37
46638;BME280;32365;46.938;7.390;2023-01-19T11:49:53;94481.44;;;7.96;34.84
46638;BME280;32365;46.938;7.390;2023-01-19T11:52:23;94466.66;;;8.76;31.36
46638;BME280;32365;46.938;7.390;2023-01-19T11:54:51;94476.63;;;8.16;32.10
46638;BME280;32365;46.938;7.390;2023-01-19T11:57:20;94473.81;;;8.52;32.42
46638;BME280;32365;46.938;7.390;2023-01-19T11:59:47;94464.19;;;7.96;36.19
46638;BME280;32365;46.938;7.390;2023-01-19T12:02:19;94469.44;;;7.55;34.61
46638;BME280;32365;46.938;7.390;2023-01-19T12:04:48;94466.34;;;8.39;33.27
46638;BME280;32365;46.938;7.390;2023-01-19T12:07:16;94461.75;;;8.58;31.21
46638;BME280;32365;46.938;7.390;2023-01-19T12:09:45;94452.56;;;8.28;34.71
46638;BME280;32365;46.938;7.390;2023-01-19T12:12:15;94456.00;;;6.72;36.07
46638;BME280;32365;46.938;7.390;2023-01-19T12:14:51;94454.53;;;6.64;36.29
46638;BME280;32365;46.938;7.390;2023-01-19T12:17:22;94457.44;;;6.44;35.60
46638;BME280;32365;46.938;7.390;2023-01-19T12:19:51;94457.47;;;7.08;36.74
46638;BME280;32365;46.938;7.390;2023-01-19T12:22:19;94446.09;;;7.62;35.48
46638;BME280;32365;46.938;7.390;2023-01-19T12:24:48;94442.78;;;6.80;35.90
46638;BME280;32365;46.938;7.390;2023-01-19T12:27:20;94447.47;;;6.83;36.61
46638;BME280;32365;46.938;7.390;2023-01-19T12:29:48;94443.47;;;6.16;35.61
46638;BME280;32365;46.938;7.390;2023-01-19T12:32:17;94449.03;;;4.35;40.96
46638;BME280;32365;46.938;7.390;2023-01-19T12:34:45;94451.94;;;5.62;39.13
46638;BME280;32365;46.938;7.390;2023-01-19T12:37:31;94459.66;;;4.57;40.64
46638;BME280;32365;46.938;7.390;2023-01-19T12:39:59;94453.03;;;3.48;41.88
46638;BME280;32365;46.938;7.390;2023-01-19T12:42:27;94454.31;;;3.19;43.35
46638;BME280;32365;46.938;7.390;2023-01-19T12:45:03;94450.84;;;2.34;45.82
46638;BME280;32365;46.938;7.390;2023-01-19T12:47:31;94450.34;;;2.84;46.62
46638;BME280;32365;46.938;7.390;2023-01-19T12:50:00;94451.59;;;2.55;45.55
46638;BME280;32365;46.938;7.390;2023-01-19T12:52:31;94446.53;;;1.74;45.68
46638;BME280;32365;46.938;7.390;2023-01-19T12:55:05;94448.84;;;1.42;46.92
46638;BME280;32365;46.938;7.390;2023-01-19T12:57:33;94443.75;;;1.49;50.49
46638;BME280;32365;46.938;7.390;2023-01-19T13:00:01;94441.22;;;1.56;50.03
46638;BME280;32365;46.938;7.390;2023-01-19T13:02:41;94439.88;;;1.73;49.31
46638;BME280;32365;46.938;7.390;2023-01-19T13:08:17;94444.78;;;1.88;52.86
46638;BME280;32365;46.938;7.390;2023-01-19T13:10:54;94444.56;;;2.30;50.11
46638;BME280;32365;46.938;7.390;2023-01-19T13:13:21;94438.53;;;1.02;53.06
46638;BME280;32365;46.938;7.390;2023-01-19T13:15:47;94442.00;;;1.49;52.54
46638;BME280;32365;46.938;7.390;2023-01-19T13:18:17;94436.84;;;1.29;53.56
46638;BME280;32365;46.938;7.390;2023-01-19T13:20:45;94441.09;;;1.15;52.78
46638;BME280;32365;46.938;7.390;2023-01-19T13:23:18;94432.91;;;1.27;53.37
46638;BME280;32365;46.938;7.390;2023-01-19T13:25:46;94439.06;;;1.73;51.31
46638;BME280;32365;46.938;7.390;2023-01-19T13:28:12;94436.50;;;0.49;52.60
46638;BME280;32365;46.938;7.390;2023-01-19T13:30:44;94432.28;;;1.11;54.76
46638;BME280;32365;46.938;7.390;2023-01-19T13:33:16;94433.38;;;1.64;52.23
46638;BME280;32365;46.938;7.390;2023-01-19T13:35:52;94437.25;;;1.40;54.40
46638;BME280;32365;46.938;7.390;2023-01-19T13:38:20;94427.06;;;1.46;52.09
46638;BME280;32365;46.938;7.390;2023-01-19T13:40:47;94434.72;;;1.40;52.29
46638;BME280;32365;46.938;7.390;2023-01-19T13:43:15;94428.59;;;1.20;54.39
46638;BME280;32365;46.938;7.390;2023-01-19T13:45:44;94431.34;;;1.26;53.65
46638;BME280;32365;46.938;7.390;2023-01-19T13:48:13;94430.91;;;0.67;54.13
46638;BME280;32365;46.938;7.390;2023-01-19T13:50:41;94429.72;;;1.04;54.92
46638;BME280;32365;46.938;7.390;2023-01-19T13:53:17;94431.53;;;0.69;56.30
46638;BME280;32365;46.938;7.390;2023-01-19T13:55:44;94426.38;;;1.11;53.47
46638;BME280;32365;46.938;7.390;2023-01-19T13:58:18;94421.16;;;1.26;53.04
46638;BME280;32365;46.938;7.390;2023-01-19T14:00:45;94429.16;;;1.16;54.50
46638;BME280;32365;46.938;7.390;2023-01-19T14:03:14;94428.03;;;1.32;53.70
46638;BME280;32365;46.938;7.390;2023-01-19T14:05:42;94426.38;;;1.04;54.52
46638;BME280;32365;46.938;7.390;2023-01-19T14:08:11;94425.22;;;1.06;53.81
46638;BME280;32365;46.938;7.390;2023-01-19T14:10:39;94420.31;;;1.12;55.58
46638;BME280;32365;46.938;7.390;2023-01-19T14:13:12;94421.72;;;1.28;54.08
46638;BME280;32365;46.938;7.390;2023-01-19T14:15:38;94420.16;;;1.20;53.83
46638;BME280;32365;46.938;7.390;2023-01-19T14:18:09;94418.59;;;1.19;53.76
46638;BME280;32365;46.938;7.390;2023-01-19T14:20:37;94421.66;;;0.94;53.70
46638;BME280;32365;46.938;7.390;2023-01-19T14:23:04;94421.63;;;0.87;53.21
46638;BME280;32365;46.938;7.390;2023-01-19T14:25:32;94416.75;;;0.99;53.67
46638;BME280;32365;46.938;7.390;2023-01-19T14:30:53;94420.91;;;0.58;53.92
46638;BME280;32365;46.938;7.390;2023-01-19T14:33:31;94420.38;;;0.35;56.49
46638;BME280;32365;46.938;7.390;2023-01-19T14:36:06;94421.22;;;0.90;54.09
46638;BME280;32365;46.938;7.390;2023-01-19T14:38:33;94422.69;;;1.13;54.25
46638;BME280;32365;46.938;7.390;2023-01-19T14:40:59;94415.03;;;0.58;53.53
46638;BME280;32365;46.938;7.390;2023-01-19T14:43:26;94416.69;;;-0.20;57.72
46638;BME280;32365;46.938;7.390;2023-01-19T14:45:55;94417.22;;;0.33;58.06
46638;BME280;32365;46.938;7.390;2023-01-19T14:48:21;94415.84;;;0.30;56.50
46638;BME280;32365;46.938;7.390;2023-01-19T14:50:49;94412.53;;;0.01;57.49
46638;BME280;32365;46.938;7.390;2023-01-19T14:53:25;94411.81;;;0.07;58.34
46638;BME280;32365;46.938;7.390;2023-01-19T14:55:53;94415.63;;;-0.04;58.62
46638;BME280;32365;46.938;7.390;2023-01-19T14:58:21;94411.91;;;0.63;57.22
46638;BME280;32365;46.938;7.390;2023-01-19T15:00:49;94411.56;;;0.79;55.70
46638;BME280;32365;46.938;7.390;2023-01-19T15:03:20;94407.22;;;-0.04;58.07
46638;BME280;32365;46.938;7.390;2023-01-19T15:05:47;94407.81;;;0.26;57.59
46638;BME280;32365;46.938;7.390;2023-01-19T15:08:14;94408.38;;;-0.07;56.95
46638;BME280;32365;46.938;7.390;2023-01-19T15:10:42;94409.31;;;0.14;55.51
46638;BME280;32365;46.938;7.390;2023-01-19T15:13:09;94409.06;;;0.09;57.68
46638;BME280;32365;46.938;7.390;2023-01-19T15:15:37;94399.28;;;-0.66;59.87
46638;BME280;32365;46.938;7.390;2023-01-19T15:18:03;94401.41;;;-0.48;61.07
46638;BME280;32365;46.938;7.390;2023-01-19T15:20:31;94401.56;;;-0.71;61.82
46638;BME280;32365;46.938;7.390;2023-01-19T15:22:57;94401.41;;;-0.91;62.42
46638;BME280;32365;46.938;7.390;2023-01-19T15:25:24;94403.47;;;-1.17;62.13
46638;BME280;32365;46.938;7.390;2023-01-19T15:27:50;94398.09;;;-1.59;63.52
46638;BME280;32365;46.938;7.390;2023-01-19T15:30:18;94398.53;;;-1.40;63.52
46638;BME280;32365;46.938;7.390;2023-01-19T15:32:45;94400.38;;;-1.49;63.06
46638;BME280;32365;46.938;7.390;2023-01-19T15:35:12;94393.44;;;-1.70;64.51
46638;BME280;32365;46.938;7.390;2023-01-19T15:37:39;94391.00;;;-1.63;63.60
46638;BME280;32365;46.938;7.390;2023-01-19T15:40:25;94402.81;;;-1.86;65.00
46638;BME280;32365;46.938;7.390;2023-01-19T15:42:51;94401.41;;;-2.03;64.10
46638;BME280;32365;46.938;7.390;2023-01-19T15:45:24;94389.75;;;-2.12;66.74
46638;BME280;32365;46.938;7.390;2023-01-19T15:47:52;94393.06;;;-2.27;66.78
46638;BME280;32365;46.938;7.390;2023-01-19T15:50:18;94386.19;;;-2.41;68.81
46638;BME280;32365;46.938;7.390;2023-01-19T15:52:46;94386.81;;;-2.39;69.39
46638;BME280;32365;46.938;7.390;2023-01-19T15:55:12;94383.44;;;-2.32;69.88
46638;BME280;32365;46.938;7.390;2023-01-19T15:57:40;94383.13;;;-2.52;71.45
46638;BME280;32365;46.938;7.390;2023-01-19T16:00:07;94379.84;;;-2.60;72.23
46638;BME280;32365;46.938;7.390;2023-01-19T16:02:34;94383.59;;;-2.71;73.64
46638;BME280;32365;46.938;7.390;2023-01-19T16:05:01;94377.78;;;-2.80;74.80
46638;BME280;32365;46.938;7.390;2023-01-19T16:07:27;94373.03;;;-3.06;75.31
46638;BME280;32365;46.938;7.390;2023-01-19T16:09:55;94382.59;;;-3.17;77.07
46638;BME280;32365;46.938;7.390;2023-01-19T16:12:21;94384.03;;;-3.22;76.89
46638;BME280;32365;46.938;7.390;2023-01-19T16:14:47;94379.94;;;-3.23;77.11
46638;BME280;32365;46.938;7.390;2023-01-19T16:17:14;94381.38;;;-3.29;76.69
46638;BME280;32365;46.938;7.390;2023-01-19T16:19:40;94371.44;;;-3.31;77.78
46638;BME280;32365;46.938;7.390;2023-01-19T16:22:07;94376.56;;;-3.47;78.77
46638;BME280;32365;46.938;7.390;2023-01-19T16:24:33;94368.47;;;-3.43;78.44
46638;BME280;32365;46.938;7.390;2023-01-19T16:27:00;94370.38;;;-3.36;79.32
46638;BME280;32365;46.938;7.390;2023-01-19T16:29:28;94374.03;;;-3.47;80.04
46638;BME280;32365;46.938;7.390;2023-01-19T16:31:54;94374.03;;;-3.47;79.35
46638;BME280;32365;46.938;7.390;2023-01-19T16:34:21;94368.56;;;-3.59;79.89
46638;BME280;32365;46.938;7.390;2023-01-19T16:36:48;94359.50;;;-3.85;82.12
46638;BME280;32365;46.938;7.390;2023-01-19T16:39:15;94363.91;;;-3.87;82.43
46638;BME280;32365;46.938;7.390;2023-01-19T16:41:42;94358.56;;;-4.00;84.29
46638;BME280;32365;46.938;7.390;2023-01-19T16:44:10;94363.31;;;-3.97;84.05
46638;BME280;32365;46.938;7.390;2023-01-19T16:46:37;94362.59;;;-4.23;84.75
46638;BME280;32365;46.938;7.390;2023-01-19T16:49:04;94350.41;;;-4.19;85.57
46638;BME280;32365;46.938;7.390;2023-01-19T16:51:32;94355.47;;;-4.19;86.19
46638;BME280;32365;46.938;7.390;2023-01-19T16:53:58;94348.19;;;-4.06;85.80
46638;BME280;32365;46.938;7.390;2023-01-19T16:56:24;94356.25;;;-4.10;85.79
46638;BME280;32365;46.938;7.390;2023-01-19T16:58:51;94347.91;;;-4.19;85.93
46638;BME280;32365;46.938;7.390;2023-01-19T17:01:19;94350.44;;;-4.36;86.44
46638;BME280;32365;46.938;7.390;2023-01-19T17:03:45;94345.25;;;-4.34;86.48
46638;BME280;32365;46.938;7.390;2023-01-19T17:06:13;94350.31;;;-4.51;86.51
46638;BME280;32365;46.938;7.390;2023-01-19T17:08:40;94349.38;;;-4.58;87.39
46638;BME280;32365;46.938;7.390;2023-01-19T17:11:07;94346.69;;;-4.56;87.56
46638;BME280;32365;46.938;7.390;2023-01-19T17:13:34;94354.41;;;-4.74;87.21
46638;BME280;32365;46.938;7.390;2023-01-19T17:16:00;94352.69;;;-4.66;87.88
46638;BME280;32365;46.938;7.390;2023-01-19T17:18:30;94348.09;;;-4.79;88.23
46638;BME280;32365;46.938;7.390;2023-01-19T17:20:58;94349.22;;;-4.89;88.57
46638;BME280;32365;46.938;7.390;2023-01-19T17:23:25;94344.47;;;-5.01;88.45
46638;BME280;32365;46.938;7.390;2023-01-19T17:25:51;94347.31;;;-5.12;89.70
46638;BME280;32365;46.938;7.390;2023-01-19T17:28:18;94347.94;;;-5.02;89.33
46638;BME280;32365;46.938;7.390;2023-01-19T17:30:44;94355.03;;;-4.97;89.40
46638;BME280;32365;46.938;7.390;2023-01-19T17:33:11;94351.09;;;-5.08;88.74
46638;BME280;32365;46.938;7.390;2023-01-19T17:35:38;94353.59;;;-5.16;89.29
46638;BME280;32365;46.938;7.390;2023-01-19T17:38:06;94348.84;;;-5.19;90.21
46638;BME280;32365;46.938;7.390;2023-01-19T17:40:32;94353.91;;;-5.28;90.22
46638;BME280;32365;46.938;7.390;2023-01-19T17:42:58;94352.78;;;-5.42;90.13
46638;BME280;32365;46.938;7.390;2023-01-19T17:45:24;94347.25;;;-5.37;90.43
46638;BME280;32365;46.938;7.390;2023-01-19T17:47:51;94349.25;;;-5.57;89.41
46638;BME280;32365;46.938;7.390;2023-01-19T17:50:17;94347.84;;;-5.60;89.34
46638;BME280;32365;46.938;7.390;2023-01-19T17:52:45;94350.56;;;-5.36;89.74
46638;BME280;32365;46.938;7.390;2023-01-19T17:55:11;94343.63;;;-5.34;89.87
46638;BME280;32365;46.938;7.390;2023-01-19T17:57:37;94340.16;;;-5.33;89.64
46638;BME280;32365;46.938;7.390;2023-01-19T18:00:04;94340.78;;;-5.39;89.41
46638;BME280;32365;46.938;7.390;2023-01-19T18:02:31;94348.16;;;-5.54;89.37
46638;BME280;32365;46.938;7.390;2023-01-19T18:04:58;94343.47;;;-5.92;88.88
46638;BME280;32365;46.938;7.390;2023-01-19T18:07:26;94341.78;;;-5.83;90.42
46638;BME280;32365;46.938;7.390;2023-01-19T18:09:54;94342.16;;;-5.96;90.28
46638;BME280;32365;46.938;7.390;2023-01-19T18:12:21;94341.38;;;-6.05;90.55
46638;BME280;32365;46.938;7.390;2023-01-19T18:14:48;94350.84;;;-5.99;90.50
46638;BME280;32365;46.938;7.390;2023-01-19T18:17:14;94337.88;;;-6.12;90.16
46638;BME280;32365;46.938;7.390;2023-01-19T18:19:41;94335.19;;;-6.11;91.26
46638;BME280;32365;46.938;7.390;2023-01-19T18:22:07;94339.34;;;-6.01;90.58
46638;BME280;32365;46.938;7.390;2023-01-19T18:24:33;94336.31;;;-6.05;90.04
46638;BME280;32365;46.938;7.390;2023-01-19T18:27:01;94334.31;;;-5.93;91.01
46638;BME280;32365;46.938;7.390;2023-01-19T18:29:28;94329.56;;;-5.96;90.98
46638;BME280;32365;46.938;7.390;2023-01-19T18:31:54;94326.88;;;-6.03;90.40
46638;BME280;32365;46.938;7.390;2023-01-19T18:34:21;94327.53;;;-5.93;89.76
46638;BME280;32365;46.938;7.390;2023-01-19T18:36:47;94331.81;;;-5.85;88.25
46638;BME280;32365;46.938;7.390;2023-01-19T18:39:13;94328.34;;;-5.92;87.85
46638;BME280;32365;46.938;7.390;2023-01-19T18:41:40;94325.00;;;-6.09;87.84
46638;BME280;32365;46.938;7.390;2023-01-19T18:44:08;94326.88;;;-6.11;88.96
46638;BME280;32365;46.938;7.390;2023-01-19T18:46:34;94318.66;;;-6.13;89.13
46638;BME280;32365;46.938;7.390;2023-01-19T18:49:01;94313.25;;;-6.27;88.63
46638;BME280;32365;46.938;7.390;2023-01-19T18:51:27;94311.19;;;-6.23;89.07
46638;BME280;32365;46.938;7.390;2023-01-19T18:53:54;94312.53;;;-6.11;88.83
46638;BME280;32365;46.938;7.390;2023-01-19T18:56:21;94318.59;;;-6.56;89.21
46638;BME280;32365;46.938;7.390;2023-01-19T18:58:47;94309.31;;;-6.56;90.17
46638;BME280;32365;46.938;7.390;2023-01-19T19:01:17;94307.38;;;-6.62;90.10
46638;BME280;32365;46.938;7.390;2023-01-19T19:03:43;94309.50;;;-6.75;89.55
46638;BME280;32365;46.938;7.390;2023-01-19T19:06:10;94313.06;;;-6.86;89.86
46638;BME280;32365;46.938;7.390;2023-01-19T19:08:36;94307.50;;;-6.90;90.07
46638;BME280;32365;46.938;7.390;2023-01-19T19:11:05;94309.28;;;-6.82;91.56
46638;BME280;32365;46.938;7.390;2023-01-19T19:13:31;94312.44;;;-6.80;90.84
46638;BME280;32365;46.938;7.390;2023-01-19T19:16:00;94312.50;;;-6.72;90.96
46638;BME280;32365;46.938;7.390;2023-01-19T19:18:28;94309.31;;;-6.56;90.29
46638;BME280;32365;46.938;7.390;2023-01-19T19:20:55;94313.03;;;-6.68;89.84
46638;BME280;32365;46.938;7.390;2023-01-19T19:23:22;94299.47;;;-6.67;90.08
46638;BME280;32365;46.938;7.390;2023-01-19T19:25:48;94301.91;;;-6.57;90.40
46638;BME280;32365;46.938;7.390;2023-01-19T19:28:14;94307.63;;;-6.73;89.63
46638;BME280;32365;46.938;7.390;2023-01-19T19:30:42;94312.16;;;-6.77;90.15
46638;BME280;32365;46.938;7.390;2023-01-19T19:33:08;94309.00;;;-6.79;90.42
46638;BME280;32365;46.938;7.390;2023-01-19T19:35:36;94305.50;;;-6.60;89.53
46638;BME280;32365;46.938;7.390;2023-01-19T19:38:02;94306.72;;;-6.64;89.30
46638;BME280;32365;46.938;7.390;2023-01-19T19:40:29;94306.03;;;-6.74;88.04
46638;BME280;32365;46.938;7.390;2023-01-19T19:42:55;94306.47;;;-6.79;89.08
46638;BME280;32365;46.938;7.390;2023-01-19T19:45:21;94302.25;;;-6.97;88.79
46638;BME280;32365;46.938;7.390;2023-01-19T19:47:47;94304.38;;;-6.92;89.74
46638;BME280;32365;46.938;7.390;2023-01-19T19:50:15;94309.56;;;-6.85;89.85
46638;BME280;32365;46.938;7.390;2023-01-19T19:52:43;94301.28;;;-6.77;90.71
46638;BME280;32365;46.938;7.390;2023-01-19T19:55:09;94310.44;;;-6.76;90.47
46638;BME280;32365;46.938;7.390;2023-01-19T19:57:36;94309.50;;;-6.75;89.88
46638;BME280;32365;46.938;7.390;2023-01-19T20:00:03;94310.53;;;-6.86;90.59